Gamlingay, United Kingdom
Current Conditions -  °F | °C
As of 12:20 PM on Sunday 25 Jan 2015 (Local Time) from EGSC Reporting Station
Scattered Clouds Scattered Clouds  
Wind Chill:   Ceiling: Unl
Heat Index:   Visibility: 6mi
Dew Point:   Wind: 13mph
Humidity: 76%   Direction: 210°SSW
Pressure: 30.36"   Gusts: NA
Location:  52.16°N, 0.19°W
Report Text: EGSC 251220Z 21011KT 170V250 9999 SCT036 07/03 Q1028
Loading
Personal Weather Stations






























Interactive Weather Map New forecast layout! Learn more

10-Day Weather Forecast

Advertisements
Track Severe Weather on mobile